Tarboro, South Carolina
Current Conditions -  °F | °C
As of 2:56 AM on Wednesday 26 Nov 2014 (Local Time) from KNBC Reporting Station
Light Rain Light Rain  
Wind Chill: 59°   Ceiling: 700
Heat Index: 59°   Visibility: 2mi
Dew Point: 58°   Wind: 12mph
Humidity: 96%   Direction: 300°WNW
Pressure: 29.83"   Gusts: NA
Location:  32.4819°N, 81.1158°W
Report Text: KNBC 260756Z AUTO 30010KT 2SM -RA BR BKN007 OVC012 15/14 A2983 RMK AO2 SFC VIS 3 CIG 004V011 SLP100 P0004 T01500144
Loading
Personal Weather Stations






























Interactive Weather Map New forecast layout! Learn more

10-Day Weather Forecast

Advertisements
Track Severe Weather on mobile